sensor_id;sensor_type;location;lat;lon;timestamp;pressure;altitude;pressure_sealevel;temperature;humidity
80892;BME280;70343;51.530;5.050;2023-09-30T00:00:26;102481.97;;;13.20;100.00
80892;BME280;70343;51.530;5.050;2023-09-30T00:02:52;102486.69;;;13.24;100.00
80892;BME280;70343;51.530;5.050;2023-09-30T00:05:18;102492.44;;;13.28;100.00
80892;BME280;70343;51.530;5.050;2023-09-30T00:07:48;102495.38;;;13.33;100.00
80892;BME280;70343;51.530;5.050;2023-09-30T00:10:13;102498.66;;;13.35;100.00
80892;BME280;70343;51.530;5.050;2023-09-30T00:12:40;102489.78;;;13.36;100.00
80892;BME280;70343;51.530;5.050;2023-09-30T00:15:05;102485.56;;;13.35;100.00
80892;BME280;70343;51.530;5.050;2023-09-30T00:17:32;102483.41;;;13.38;100.00
80892;BME280;70343;51.530;5.050;2023-09-30T00:19:58;102483.28;;;13.32;100.00
80892;BME280;70343;51.530;5.050;2023-09-30T00:22:24;102473.59;;;13.32;100.00
80892;BME280;70343;51.530;5.050;2023-09-30T00:24:49;102468.38;;;13.24;100.00
80892;BME280;70343;51.530;5.050;2023-09-30T00:27:15;102479.00;;;13.23;100.00
80892;BME280;70343;51.530;5.050;2023-09-30T00:29:40;102494.91;;;13.29;100.00
80892;BME280;70343;51.530;5.050;2023-09-30T00:32:07;102497.84;;;13.26;100.00
80892;BME280;70343;51.530;5.050;2023-09-30T00:34:34;102507.66;;;13.32;100.00
80892;BME280;70343;51.530;5.050;2023-09-30T00:36:59;102514.19;;;13.36;100.00
80892;BME280;70343;51.530;5.050;2023-09-30T00:39:25;102513.41;;;13.28;100.00
80892;BME280;70343;51.530;5.050;2023-09-30T00:41:55;102501.28;;;13.19;100.00
80892;BME280;70343;51.530;5.050;2023-09-30T00:44:20;102495.38;;;13.25;100.00
80892;BME280;70343;51.530;5.050;2023-09-30T00:46:46;102499.81;;;13.24;100.00
80892;BME280;70343;51.530;5.050;2023-09-30T00:49:13;102505.88;;;13.17;100.00
80892;BME280;70343;51.530;5.050;2023-09-30T00:51:39;102509.16;;;13.11;100.00
80892;BME280;70343;51.530;5.050;2023-09-30T00:54:06;102503.91;;;13.11;100.00
80892;BME280;70343;51.530;5.050;2023-09-30T00:56:32;102505.88;;;13.09;100.00
80892;BME280;70343;51.530;5.050;2023-09-30T00:58:58;102500.63;;;13.09;100.00
80892;BME280;70343;51.530;5.050;2023-09-30T01:01:24;102508.84;;;13.14;100.00
80892;BME280;70343;51.530;5.050;2023-09-30T01:03:50;102499.63;;;13.02;100.00
80892;BME280;70343;51.530;5.050;2023-09-30T01:06:16;102498.81;;;13.01;100.00
80892;BME280;70343;51.530;5.050;2023-09-30T01:08:42;102515.81;;;12.97;100.00
80892;BME280;70343;51.530;5.050;2023-09-30T01:11:08;102533.34;;;12.97;100.00
80892;BME280;70343;51.530;5.050;2023-09-30T01:13:35;102541.88;;;12.99;100.00
80892;BME280;70343;51.530;5.050;2023-09-30T01:16:09;102543.97;;;12.95;100.00
80892;BME280;70343;51.530;5.050;2023-09-30T01:18:35;102551.31;;;12.84;100.00
80892;BME280;70343;51.530;5.050;2023-09-30T01:21:06;102546.44;;;12.89;100.00
80892;BME280;70343;51.530;5.050;2023-09-30T01:23:32;102545.44;;;12.90;100.00
80892;BME280;70343;51.530;5.050;2023-09-30T01:26:08;102540.03;;;12.91;100.00
80892;BME280;70343;51.530;5.050;2023-09-30T01:28:34;102542.16;;;12.88;100.00
80892;BME280;70343;51.530;5.050;2023-09-30T01:31:00;102540.19;;;12.82;100.00
80892;BME280;70343;51.530;5.050;2023-09-30T01:33:27;102536.44;;;12.84;100.00
80892;BME280;70343;51.530;5.050;2023-09-30T01:35:54;102525.81;;;12.86;100.00
80892;BME280;70343;51.530;5.050;2023-09-30T01:38:20;102521.06;;;12.81;100.00
80892;BME280;70343;51.530;5.050;2023-09-30T01:40:46;102530.72;;;12.81;100.00
80892;BME280;70343;51.530;5.050;2023-09-30T01:43:12;102532.03;;;12.77;100.00
80892;BME280;70343;51.530;5.050;2023-09-30T01:45:40;102530.88;;;12.79;100.00
80892;BME280;70343;51.530;5.050;2023-09-30T01:48:06;102531.03;;;12.78;100.00
80892;BME280;70343;51.530;5.050;2023-09-30T01:50:32;102534.97;;;12.82;100.00
80892;BME280;70343;51.530;5.050;2023-09-30T01:52:58;102514.84;;;12.82;100.00
80892;BME280;70343;51.530;5.050;2023-09-30T01:55:23;102527.47;;;12.87;100.00
80892;BME280;70343;51.530;5.050;2023-09-30T01:57:49;102516.66;;;12.90;100.00
80892;BME280;70343;51.530;5.050;2023-09-30T02:00:14;102515.97;;;12.88;100.00
80892;BME280;70343;51.530;5.050;2023-09-30T02:02:41;102527.63;;;12.77;100.00
80892;BME280;70343;51.530;5.050;2023-09-30T02:05:07;102528.75;;;12.83;100.00
80892;BME280;70343;51.530;5.050;2023-09-30T02:07:34;102538.59;;;12.89;100.00
80892;BME280;70343;51.530;5.050;2023-09-30T02:09:59;102532.34;;;12.90;100.00
80892;BME280;70343;51.530;5.050;2023-09-30T02:12:26;102531.38;;;12.91;100.00
80892;BME280;70343;51.530;5.050;2023-09-30T02:14:53;102532.84;;;12.93;100.00
80892;BME280;70343;51.530;5.050;2023-09-30T02:17:19;102533.84;;;12.92;100.00
80892;BME280;70343;51.530;5.050;2023-09-30T02:19:44;102527.13;;;12.90;100.00
80892;BME280;70343;51.530;5.050;2023-09-30T02:22:11;102538.56;;;12.81;100.00
80892;BME280;70343;51.530;5.050;2023-09-30T02:24:37;102525.50;;;12.89;100.00
80892;BME280;70343;51.530;5.050;2023-09-30T02:27:05;102519.91;;;12.92;100.00
80892;BME280;70343;51.530;5.050;2023-09-30T02:29:31;102528.59;;;12.92;100.00
80892;BME280;70343;51.530;5.050;2023-09-30T02:31:56;102537.59;;;12.90;100.00
80892;BME280;70343;51.530;5.050;2023-09-30T02:34:22;102542.69;;;12.83;100.00
80892;BME280;70343;51.530;5.050;2023-09-30T02:36:47;102529.41;;;12.85;100.00
80892;BME280;70343;51.530;5.050;2023-09-30T02:39:14;102520.56;;;12.86;100.00
80892;BME280;70343;51.530;5.050;2023-09-30T02:41:42;102510.91;;;12.86;100.00
80892;BME280;70343;51.530;5.050;2023-09-30T02:44:07;102516.97;;;12.87;100.00
80892;BME280;70343;51.530;5.050;2023-09-30T02:46:33;102515.50;;;12.84;100.00
80892;BME280;70343;51.530;5.050;2023-09-30T02:49:00;102515.19;;;12.79;100.00
80892;BME280;70343;51.530;5.050;2023-09-30T02:51:26;102515.19;;;12.79;100.00
80892;BME280;70343;51.530;5.050;2023-09-30T02:53:53;102520.56;;;12.78;100.00
80892;BME280;70343;51.530;5.050;2023-09-30T02:56:19;102532.03;;;12.77;100.00
80892;BME280;70343;51.530;5.050;2023-09-30T02:58:45;102532.00;;;12.69;100.00
80892;BME280;70343;51.530;5.050;2023-09-30T03:01:15;102536.56;;;12.67;100.00
80892;BME280;70343;51.530;5.050;2023-09-30T03:03:44;102534.44;;;12.70;100.00
80892;BME280;70343;51.530;5.050;2023-09-30T03:06:10;102538.53;;;12.65;100.00
80892;BME280;70343;51.530;5.050;2023-09-30T03:08:36;102536.56;;;12.67;100.00
80892;BME280;70343;51.530;5.050;2023-09-30T03:11:02;102532.81;;;12.61;100.00
80892;BME280;70343;51.530;5.050;2023-09-30T03:13:27;102529.72;;;12.58;100.00
80892;BME280;70343;51.530;5.050;2023-09-30T03:15:53;102526.72;;;12.52;100.00
80892;BME280;70343;51.530;5.050;2023-09-30T03:18:19;102523.66;;;12.57;100.00
80892;BME280;70343;51.530;5.050;2023-09-30T03:20:52;102512.34;;;12.57;100.00
80892;BME280;70343;51.530;5.050;2023-09-30T03:23:22;102503.03;;;12.62;100.00
80892;BME280;70343;51.530;5.050;2023-09-30T03:25:58;102505.81;;;12.61;100.00
80892;BME280;70343;51.530;5.050;2023-09-30T03:28:24;102512.69;;;12.62;100.00
80892;BME280;70343;51.530;5.050;2023-09-30T03:30:50;102507.09;;;12.48;100.00
80892;BME280;70343;51.530;5.050;2023-09-30T03:33:16;102520.03;;;12.50;100.00
80892;BME280;70343;51.530;5.050;2023-09-30T03:35:42;102523.47;;;12.50;100.00
80892;BME280;70343;51.530;5.050;2023-09-30T03:38:08;102526.41;;;12.47;100.00
80892;BME280;70343;51.530;5.050;2023-09-30T03:40:35;102529.50;;;12.43;100.00
80892;BME280;70343;51.530;5.050;2023-09-30T03:43:04;102517.53;;;12.32;100.00
80892;BME280;70343;51.530;5.050;2023-09-30T03:45:31;102514.19;;;12.14;100.00
80892;BME280;70343;51.530;5.050;2023-09-30T03:48:01;102519.78;;;12.27;100.00
80892;BME280;70343;51.530;5.050;2023-09-30T03:50:28;102513.59;;;12.28;100.00
80892;BME280;70343;51.530;5.050;2023-09-30T03:53:04;102517.53;;;12.32;100.00
80892;BME280;70343;51.530;5.050;2023-09-30T03:55:30;102509.03;;;12.30;100.00
80892;BME280;70343;51.530;5.050;2023-09-30T03:57:57;102508.66;;;12.25;100.00
80892;BME280;70343;51.530;5.050;2023-09-30T04:00:22;102519.97;;;12.26;100.00
80892;BME280;70343;51.530;5.050;2023-09-30T04:02:50;102515.88;;;12.31;100.00
80892;BME280;70343;51.530;5.050;2023-09-30T04:05:19;102507.09;;;12.32;100.00
80892;BME280;70343;51.530;5.050;2023-09-30T04:07:44;102518.88;;;12.36;100.00
80892;BME280;70343;51.530;5.050;2023-09-30T04:10:10;102521.94;;;12.32;100.00
80892;BME280;70343;51.530;5.050;2023-09-30T04:12:35;102525.06;;;12.35;100.00
80892;BME280;70343;51.530;5.050;2023-09-30T04:15:02;102512.81;;;12.36;100.00
80892;BME280;70343;51.530;5.050;2023-09-30T04:17:29;102509.03;;;12.30;100.00
80892;BME280;70343;51.530;5.050;2023-09-30T04:19:54;102512.13;;;12.26;100.00
80892;BME280;70343;51.530;5.050;2023-09-30T04:22:20;102509.50;;;12.26;100.00
80892;BME280;70343;51.530;5.050;2023-09-30T04:24:46;102500.50;;;12.20;100.00
80892;BME280;70343;51.530;5.050;2023-09-30T04:27:14;102503.41;;;12.17;100.00
80892;BME280;70343;51.530;5.050;2023-09-30T04:29:40;102508.00;;;12.23;100.00
80892;BME280;70343;51.530;5.050;2023-09-30T04:32:07;102513.91;;;12.25;100.00
80892;BME280;70343;51.530;5.050;2023-09-30T04:34:32;102521.44;;;12.28;100.00
80892;BME280;70343;51.530;5.050;2023-09-30T04:36:58;102515.41;;;12.28;100.00
80892;BME280;70343;51.530;5.050;2023-09-30T04:39:25;102511.28;;;12.25;100.00
80892;BME280;70343;51.530;5.050;2023-09-30T04:41:50;102519.78;;;12.27;100.00
80892;BME280;70343;51.530;5.050;2023-09-30T04:44:16;102523.41;;;12.26;100.00
80892;BME280;70343;51.530;5.050;2023-09-30T04:46:41;102521.44;;;12.28;100.00
80892;BME280;70343;51.530;5.050;2023-09-30T04:49:13;102536.31;;;12.28;100.00
80892;BME280;70343;51.530;5.050;2023-09-30T04:51:39;102534.19;;;12.31;100.00
80892;BME280;70343;51.530;5.050;2023-09-30T04:54:05;102543.50;;;12.26;100.00
80892;BME280;70343;51.530;5.050;2023-09-30T04:56:34;102538.44;;;12.24;100.00
80892;BME280;70343;51.530;5.050;2023-09-30T04:59:00;102525.84;;;12.28;100.00
80892;BME280;70343;51.530;5.050;2023-09-30T05:01:27;102537.09;;;12.20;100.00
80892;BME280;70343;51.530;5.050;2023-09-30T05:03:53;102529.75;;;12.24;100.00
80892;BME280;70343;51.530;5.050;2023-09-30T05:06:19;102529.25;;;12.20;100.00
80892;BME280;70343;51.530;5.050;2023-09-30T05:08:44;102529.91;;;12.14;100.00
80892;BME280;70343;51.530;5.050;2023-09-30T05:11:10;102527.94;;;12.16;100.00
80892;BME280;70343;51.530;5.050;2023-09-30T05:13:35;102535.47;;;12.19;100.00
80892;BME280;70343;51.530;5.050;2023-09-30T05:16:01;102542.81;;;12.16;100.00
80892;BME280;70343;51.530;5.050;2023-09-30T05:18:28;102542.31;;;12.12;100.00
80892;BME280;70343;51.530;5.050;2023-09-30T05:20:55;102550.44;;;12.09;100.00
80892;BME280;70343;51.530;5.050;2023-09-30T05:23:20;102545.59;;;12.14;100.00
80892;BME280;70343;51.530;5.050;2023-09-30T05:25:46;102544.59;;;12.15;100.00
80892;BME280;70343;51.530;5.050;2023-09-30T05:28:11;102542.97;;;12.14;100.00
80892;BME280;70343;51.530;5.050;2023-09-30T05:30:39;102540.34;;;12.14;100.00
80892;BME280;70343;51.530;5.050;2023-09-30T05:33:06;102532.97;;;12.10;100.00
80892;BME280;70343;51.530;5.050;2023-09-30T05:35:31;102538.03;;;12.03;100.00
80892;BME280;70343;51.530;5.050;2023-09-30T05:37:58;102548.28;;;11.97;100.00
80892;BME280;70343;51.530;5.050;2023-09-30T05:40:23;102537.03;;;12.04;100.00
80892;BME280;70343;51.530;5.050;2023-09-30T05:42:54;102535.41;;;12.11;100.00
80892;BME280;70343;51.530;5.050;2023-09-30T05:45:22;102540.00;;;12.09;100.00
80892;BME280;70343;51.530;5.050;2023-09-30T05:48:01;102555.06;;;12.15;100.00
80892;BME280;70343;51.530;5.050;2023-09-30T05:50:29;102564.22;;;12.19;100.00
80892;BME280;70343;51.530;5.050;2023-09-30T05:52:57;102561.47;;;12.21;100.00
80892;BME280;70343;51.530;5.050;2023-09-30T05:55:23;102562.28;;;12.21;100.00
80892;BME280;70343;51.530;5.050;2023-09-30T05:57:50;102566.66;;;12.13;100.00
80892;BME280;70343;51.530;5.050;2023-09-30T06:00:17;102575.31;;;12.13;100.00
80892;BME280;70343;51.530;5.050;2023-09-30T06:02:54;102560.16;;;12.17;100.00
80892;BME280;70343;51.530;5.050;2023-09-30T06:05:20;102569.41;;;12.11;100.00
80892;BME280;70343;51.530;5.050;2023-09-30T06:07:48;102575.63;;;12.10;100.00
80892;BME280;70343;51.530;5.050;2023-09-30T06:10:14;102568.78;;;12.17;100.00
80892;BME280;70343;51.530;5.050;2023-09-30T06:12:52;102566.19;;;12.17;100.00
80892;BME280;70343;51.530;5.050;2023-09-30T06:15:21;102569.94;;;12.15;100.00
80892;BME280;70343;51.530;5.050;2023-09-30T06:17:49;102561.16;;;12.24;100.00
80892;BME280;70343;51.530;5.050;2023-09-30T06:20:15;102557.53;;;12.25;100.00
80892;BME280;70343;51.530;5.050;2023-09-30T06:22:46;102563.59;;;12.25;100.00
80892;BME280;70343;51.530;5.050;2023-09-30T06:25:12;102566.06;;;12.27;100.00
80892;BME280;70343;51.530;5.050;2023-09-30T06:27:44;102563.44;;;12.27;100.00
80892;BME280;70343;51.530;5.050;2023-09-30T06:30:11;102561.19;;;12.32;100.00
80892;BME280;70343;51.530;5.050;2023-09-30T06:32:37;102571.13;;;12.20;100.00
80892;BME280;70343;51.530;5.050;2023-09-30T06:35:03;102566.59;;;12.30;100.00
80892;BME280;70343;51.530;5.050;2023-09-30T06:37:29;102575.78;;;12.50;100.00
80892;BME280;70343;51.530;5.050;2023-09-30T06:39:55;102577.13;;;12.63;100.00
80892;BME280;70343;51.530;5.050;2023-09-30T06:42:21;102579.44;;;12.74;100.00
80892;BME280;70343;51.530;5.050;2023-09-30T06:44:47;102590.09;;;12.80;100.00
80892;BME280;70343;51.530;5.050;2023-09-30T06:47:13;102584.41;;;12.85;100.00
80892;BME280;70343;51.530;5.050;2023-09-30T06:49:38;102596.16;;;12.81;100.00
80892;BME280;70343;51.530;5.050;2023-09-30T06:52:04;102604.69;;;12.91;100.00
80892;BME280;70343;51.530;5.050;2023-09-30T06:54:31;102620.63;;;13.05;100.00
80892;BME280;70343;51.530;5.050;2023-09-30T06:56:56;102609.31;;;13.05;100.00
80892;BME280;70343;51.530;5.050;2023-09-30T06:59:22;102617.81;;;13.07;100.00
80892;BME280;70343;51.530;5.050;2023-09-30T07:01:47;102622.28;;;13.06;100.00
80892;BME280;70343;51.530;5.050;2023-09-30T07:04:13;102620.63;;;13.05;100.00
80892;BME280;70343;51.530;5.050;2023-09-30T07:06:38;102621.56;;;12.96;100.00
80892;BME280;70343;51.530;5.050;2023-09-30T07:09:04;102615.56;;;13.12;100.00
80892;BME280;70343;51.530;5.050;2023-09-30T07:11:30;102626.06;;;13.28;100.00
80892;BME280;70343;51.530;5.050;2023-09-30T07:13:59;102625.72;;;13.31;100.00
80892;BME280;70343;51.530;5.050;2023-09-30T07:16:25;102637.84;;;13.16;100.00
80892;BME280;70343;51.530;5.050;2023-09-30T07:18:51;102643.09;;;13.48;100.00
80892;BME280;70343;51.530;5.050;2023-09-30T07:21:16;102657.84;;;13.57;100.00
80892;BME280;70343;51.530;5.050;2023-09-30T07:23:42;102654.72;;;13.70;100.00
80892;BME280;70343;51.530;5.050;2023-09-30T07:26:08;102670.13;;;13.65;100.00
80892;BME280;70343;51.530;5.050;2023-09-30T07:28:33;102665.88;;;13.39;100.00
80892;BME280;70343;51.530;5.050;2023-09-30T07:30:59;102668.81;;;13.45;100.00
80892;BME280;70343;51.530;5.050;2023-09-30T07:33:24;102668.47;;;13.31;100.00
80892;BME280;70343;51.530;5.050;2023-09-30T07:35:50;102669.94;;;13.26;100.00
80892;BME280;70343;51.530;5.050;2023-09-30T07:38:15;102670.75;;;13.26;100.00
80892;BME280;70343;51.530;5.050;2023-09-30T07:40:41;102664.38;;;13.29;100.00
80892;BME280;70343;51.530;5.050;2023-09-30T07:43:07;102675.19;;;13.42;100.00
80892;BME280;70343;51.530;5.050;2023-09-30T07:45:33;102665.53;;;13.43;100.00
80892;BME280;70343;51.530;5.050;2023-09-30T07:47:58;102669.28;;;13.56;100.00
80892;BME280;70343;51.530;5.050;2023-09-30T07:50:24;102667.69;;;13.55;100.00
80892;BME280;70343;51.530;5.050;2023-09-30T07:52:49;102663.41;;;13.70;100.00
80892;BME280;70343;51.530;5.050;2023-09-30T07:55:15;102668.00;;;13.84;100.00
80892;BME280;70343;51.530;5.050;2023-09-30T07:57:41;102678.31;;;13.70;100.00
80892;BME280;70343;51.530;5.050;2023-09-30T08:00:08;102669.44;;;13.95;100.00
80892;BME280;70343;51.530;5.050;2023-09-30T08:02:35;102660.88;;;14.17;100.00
80892;BME280;70343;51.530;5.050;2023-09-30T08:05:02;102664.31;;;14.25;100.00
80892;BME280;70343;51.530;5.050;2023-09-30T08:07:27;102663.16;;;14.28;100.00
80892;BME280;70343;51.530;5.050;2023-09-30T08:09:53;102663.31;;;14.18;100.00
80892;BME280;70343;51.530;5.050;2023-09-30T08:12:19;102660.69;;;14.35;100.00
80892;BME280;70343;51.530;5.050;2023-09-30T08:14:44;102648.41;;;14.35;100.00
80892;BME280;70343;51.530;5.050;2023-09-30T08:17:10;102646.28;;;14.31;100.00
80892;BME280;70343;51.530;5.050;2023-09-30T08:19:37;102643.63;;;14.39;100.00
80892;BME280;70343;51.530;5.050;2023-09-30T08:22:02;102647.59;;;14.65;100.00
80892;BME280;70343;51.530;5.050;2023-09-30T08:24:29;102642.63;;;14.40;100.00
80892;BME280;70343;51.530;5.050;2023-09-30T08:26:54;102645.22;;;14.48;100.00
80892;BME280;70343;51.530;5.050;2023-09-30T08:29:22;102646.50;;;14.90;100.00
80892;BME280;70343;51.530;5.050;2023-09-30T08:31:47;102642.47;;;14.80;100.00
80892;BME280;70343;51.530;5.050;2023-09-30T08:34:14;102629.84;;;14.75;100.00
80892;BME280;70343;51.530;5.050;2023-09-30T08:36:40;102633.31;;;14.68;100.00
80892;BME280;70343;51.530;5.050;2023-09-30T08:39:07;102637.28;;;14.94;100.00
80892;BME280;70343;51.530;5.050;2023-09-30T08:41:34;102640.81;;;15.09;100.00
80892;BME280;70343;51.530;5.050;2023-09-30T08:44:01;102635.53;;;15.32;100.00
80892;BME280;70343;51.530;5.050;2023-09-30T08:46:34;102631.75;;;15.12;100.00
80892;BME280;70343;51.530;5.050;2023-09-30T08:49:04;102627.06;;;15.22;100.00
80892;BME280;70343;51.530;5.050;2023-09-30T08:51:30;102630.72;;;15.44;100.00
80892;BME280;70343;51.530;5.050;2023-09-30T08:53:57;102634.63;;;15.48;100.00
80892;BME280;70343;51.530;5.050;2023-09-30T08:56:27;102646.13;;;15.47;100.00
80892;BME280;70343;51.530;5.050;2023-09-30T08:58:58;102655.56;;;15.78;100.00
80892;BME280;70343;51.530;5.050;2023-09-30T09:01:25;102675.19;;;15.90;100.00
80892;BME280;70343;51.530;5.050;2023-09-30T09:03:50;102671.19;;;15.94;100.00
80892;BME280;70343;51.530;5.050;2023-09-30T09:06:21;102661.38;;;15.88;100.00
80892;BME280;70343;51.530;5.050;2023-09-30T09:08:47;102669.34;;;15.80;100.00
80892;BME280;70343;51.530;5.050;2023-09-30T09:11:13;102670.03;;;16.12;100.00
80892;BME280;70343;51.530;5.050;2023-09-30T09:13:47;102672.38;;;16.21;100.00
80892;BME280;70343;51.530;5.050;2023-09-30T09:16:16;102693.19;;;16.16;100.00
80892;BME280;70343;51.530;5.050;2023-09-30T09:18:43;102687.66;;;16.26;100.00
80892;BME280;70343;51.530;5.050;2023-09-30T09:26:06;102686.22;;;16.52;100.00
80892;BME280;70343;51.530;5.050;2023-09-30T09:28:37;102701.00;;;16.68;100.00
80892;BME280;70343;51.530;5.050;2023-09-30T09:31:22;102701.09;;;16.60;100.00
80892;BME280;70343;51.530;5.050;2023-09-30T09:33:51;102699.56;;;16.51;100.00
80892;BME280;70343;51.530;5.050;2023-09-30T09:36:17;102705.94;;;16.56;100.00
80892;BME280;70343;51.530;5.050;2023-09-30T09:38:49;102710.00;;;16.59;100.00
80892;BME280;70343;51.530;5.050;2023-09-30T09:41:18;102707.25;;;16.81;100.00
80892;BME280;70343;51.530;5.050;2023-09-30T09:43:44;102712.47;;;16.75;100.00
80892;BME280;70343;51.530;5.050;2023-09-30T09:46:10;102712.53;;;16.81;100.00
80892;BME280;70343;51.530;5.050;2023-09-30T09:48:37;102706.28;;;16.68;100.00
80892;BME280;70343;51.530;5.050;2023-09-30T09:51:07;102705.44;;;16.82;100.00
80892;BME280;70343;51.530;5.050;2023-09-30T09:53:35;102708.91;;;16.82;100.00
80892;BME280;70343;51.530;5.050;2023-09-30T09:56:04;102708.81;;;16.76;100.00
80892;BME280;70343;51.530;5.050;2023-09-30T09:58:35;102719.16;;;16.92;100.00
80892;BME280;70343;51.530;5.050;2023-09-30T10:01:05;102717.41;;;16.99;100.00
80892;BME280;70343;51.530;5.050;2023-09-30T10:03:32;102720.66;;;17.01;100.00
80892;BME280;70343;51.530;5.050;2023-09-30T10:05:59;102715.94;;;17.32;100.00
80892;BME280;70343;51.530;5.050;2023-09-30T10:08:33;102720.16;;;17.48;100.00
80892;BME280;70343;51.530;5.050;2023-09-30T10:11:00;102722.28;;;17.52;100.00
80892;BME280;70343;51.530;5.050;2023-09-30T10:13:55;102714.34;;;17.73;100.00
80892;BME280;70343;51.530;5.050;2023-09-30T10:19:12;102714.59;;;17.57;100.00
80892;BME280;70343;51.530;5.050;2023-09-30T10:21:39;102704.91;;;17.43;100.00
80892;BME280;70343;51.530;5.050;2023-09-30T10:35:20;102672.03;;;17.88;100.00
80892;BME280;70343;51.530;5.050;2023-09-30T10:37:46;102670.81;;;17.91;98.77
80892;BME280;70343;51.530;5.050;2023-09-30T10:40:29;102665.94;;;17.88;98.64
80892;BME280;70343;51.530;5.050;2023-09-30T10:42:55;102668.16;;;17.84;100.00
80892;BME280;70343;51.530;5.050;2023-09-30T10:53:24;102656.16;;;18.09;96.78
80892;BME280;70343;51.530;5.050;2023-09-30T10:55:59;102647.56;;;18.01;95.34
80892;BME280;70343;51.530;5.050;2023-09-30T11:01:11;102652.34;;;18.18;94.56
80892;BME280;70343;51.530;5.050;2023-09-30T11:03:39;102647.31;;;18.30;92.41
80892;BME280;70343;51.530;5.050;2023-09-30T11:06:04;102646.81;;;18.47;89.66
80892;BME280;70343;51.530;5.050;2023-09-30T11:08:30;102647.09;;;18.65;92.11
80892;BME280;70343;51.530;5.050;2023-09-30T11:10:56;102647.59;;;18.82;90.31
80892;BME280;70343;51.530;5.050;2023-09-30T11:13:22;102653.50;;;18.97;88.13
80892;BME280;70343;51.530;5.050;2023-09-30T11:15:47;102648.00;;;18.92;88.10
80892;BME280;70343;51.530;5.050;2023-09-30T11:18:24;102648.44;;;19.02;88.59
80892;BME280;70343;51.530;5.050;2023-09-30T11:20:49;102648.00;;;18.99;87.74
80892;BME280;70343;51.530;5.050;2023-09-30T11:23:15;102652.16;;;19.34;88.33
80892;BME280;70343;51.530;5.050;2023-09-30T11:25:41;102646.47;;;19.43;86.60
80892;BME280;70343;51.530;5.050;2023-09-30T11:28:17;102644.44;;;19.32;84.87
80892;BME280;70343;51.530;5.050;2023-09-30T11:31:12;102636.69;;;19.50;84.28
80892;BME280;70343;51.530;5.050;2023-09-30T11:33:52;102633.03;;;19.65;84.39
80892;BME280;70343;51.530;5.050;2023-09-30T11:36:21;102626.53;;;19.74;85.35
80892;BME280;70343;51.530;5.050;2023-09-30T11:38:48;102637.31;;;19.85;84.32
80892;BME280;70343;51.530;5.050;2023-09-30T11:41:15;102641.56;;;19.93;84.66
80892;BME280;70343;51.530;5.050;2023-09-30T11:44:03;102633.03;;;19.78;80.45
80892;BME280;70343;51.530;5.050;2023-09-30T11:46:58;102639.94;;;19.79;78.40
80892;BME280;70343;51.530;5.050;2023-09-30T11:49:36;102650.13;;;19.75;81.03
80892;BME280;70343;51.530;5.050;2023-09-30T11:52:06;102649.31;;;19.55;78.61
80892;BME280;70343;51.530;5.050;2023-09-30T11:54:36;102641.97;;;19.24;76.16
80892;BME280;70343;51.530;5.050;2023-09-30T11:57:10;102629.38;;;19.33;78.99
80892;BME280;70343;51.530;5.050;2023-09-30T11:59:37;102642.81;;;19.58;79.77
80892;BME280;70343;51.530;5.050;2023-09-30T12:02:04;102629.38;;;19.52;77.18
80892;BME280;70343;51.530;5.050;2023-09-30T12:04:34;102635.47;;;19.73;78.49
80892;BME280;70343;51.530;5.050;2023-09-30T12:06:59;102628.34;;;19.67;78.23
80892;BME280;70343;51.530;5.050;2023-09-30T12:09:25;102617.56;;;19.62;75.71
80892;BME280;70343;51.530;5.050;2023-09-30T12:11:53;102616.72;;;19.87;77.63
80892;BME280;70343;51.530;5.050;2023-09-30T12:14:19;102614.88;;;19.88;76.14
80892;BME280;70343;51.530;5.050;2023-09-30T12:16:46;102608.78;;;19.74;76.00
80892;BME280;70343;51.530;5.050;2023-09-30T12:19:19;102609.00;;;19.73;77.25
80892;BME280;70343;51.530;5.050;2023-09-30T12:21:45;102606.56;;;19.65;72.05
80892;BME280;70343;51.530;5.050;2023-09-30T12:24:16;102606.75;;;19.89;74.30
80892;BME280;70343;51.530;5.050;2023-09-30T12:26:46;102599.59;;;20.03;75.37
80892;BME280;70343;51.530;5.050;2023-09-30T12:29:18;102599.16;;;19.99;71.30
80892;BME280;70343;51.530;5.050;2023-09-30T12:31:45;102598.53;;;20.04;72.07
80892;BME280;70343;51.530;5.050;2023-09-30T12:34:11;102590.38;;;20.12;71.17
80892;BME280;70343;51.530;5.050;2023-09-30T12:36:36;102587.19;;;19.84;62.05
80892;BME280;70343;51.530;5.050;2023-09-30T12:39:02;102594.69;;;20.00;67.63
80892;BME280;70343;51.530;5.050;2023-09-30T12:41:39;102594.44;;;20.27;66.47
80892;BME280;70343;51.530;5.050;2023-09-30T12:44:08;102591.63;;;20.03;66.98
80892;BME280;70343;51.530;5.050;2023-09-30T12:46:35;102600.97;;;20.05;69.58
80892;BME280;70343;51.530;5.050;2023-09-30T12:49:11;102601.19;;;20.10;67.08
80892;BME280;70343;51.530;5.050;2023-09-30T12:51:37;102600.19;;;19.92;67.30
80892;BME280;70343;51.530;5.050;2023-09-30T12:54:03;102598.38;;;19.99;69.28
80892;BME280;70343;51.530;5.050;2023-09-30T12:56:29;102595.91;;;19.97;69.17
80892;BME280;70343;51.530;5.050;2023-09-30T12:58:56;102591.09;;;19.75;69.03
80892;BME280;70343;51.530;5.050;2023-09-30T13:01:21;102583.34;;;19.67;70.03
80892;BME280;70343;51.530;5.050;2023-09-30T13:03:48;102589.44;;;19.87;70.81
80892;BME280;70343;51.530;5.050;2023-09-30T13:06:14;102594.13;;;19.85;71.20
80892;BME280;70343;51.530;5.050;2023-09-30T13:08:41;102595.78;;;19.79;70.10
80892;BME280;70343;51.530;5.050;2023-09-30T13:11:07;102589.44;;;19.93;71.45
80892;BME280;70343;51.530;5.050;2023-09-30T13:13:33;102591.88;;;19.88;70.52